Time;durP1;ratioP1;P1;durP2;ratioP2;P2;SDS_P1;SDS_P2;PMS_P1;PMS_P2;Temp;Humidity;BMP_temperature;BMP_pressure;BME280_temperature;BME280_humidity;BME280_pressure;Samples;Min_cycle;Max_cycle;Signal;HPM_P1;HPM_P2
2021/12/27 00:01:10;;;;;;;;;58.75;45.75;;;;;5.43;73.49;98814.75;5048134;28;8880;-78
2021/12/27 00:03:39;;;;;;;;;59.50;45.75;;;;;5.41;73.77;98814.75;5041994;28;8953;-79
2021/12/27 00:06:09;;;;;;;;;48.75;41.00;;;;;5.34;73.61;98807.78;5049275;28;8857;-77
2021/12/27 00:08:42;;;;;;;;;46.75;40.00;;;;;5.37;74.18;98810.41;5048766;28;8893;-79
2021/12/27 00:11:13;;;;;;;;;43.50;38.00;;;;;5.20;73.58;98810.25;5029054;28;8895;-79
2021/12/27 00:13:42;;;;;;;;;43.75;36.25;;;;;5.15;73.79;98799.00;5029742;28;8862;-77
2021/12/27 00:16:11;;;;;;;;;34.40;30.00;;;;;5.25;73.70;98793.06;5029173;28;8897;-78
2021/12/27 00:18:41;;;;;;;;;35.00;33.60;;;;;5.22;74.57;98787.00;5029271;28;8858;-77
2021/12/27 00:21:09;;;;;;;;;37.00;31.00;;;;;5.04;73.91;98785.09;4980433;28;8858;-79
2021/12/27 00:23:40;;;;;;;;;35.20;31.00;;;;;4.92;74.54;98783.28;5013244;28;8870;-76
2021/12/27 00:26:09;;;;;;;;;44.80;36.00;;;;;5.13;74.99;98772.28;5045767;28;8882;-77
2021/12/27 00:28:37;;;;;;;;;29.00;25.60;;;;;5.00;74.39;98773.03;5029375;28;8862;-77
2021/12/27 00:31:06;;;;;;;;;29.80;29.80;;;;;4.98;74.45;98766.97;5045728;28;8854;-77
2021/12/27 00:33:35;;;;;;;;;34.60;29.00;;;;;4.79;75.30;98774.53;5029420;28;8935;-77
2021/12/27 00:36:05;;;;;;;;;38.60;32.40;;;;;4.89;75.19;98771.19;5029303;28;8892;-78
2021/12/27 00:38:33;;;;;;;;;37.00;27.60;;;;;4.91;75.07;98775.50;5045937;28;8916;-77
2021/12/27 00:41:04;;;;;;;;;35.75;29.50;;;;;4.95;75.52;98772.97;5028999;28;8904;-78
2021/12/27 00:43:32;;;;;;;;;32.60;29.80;;;;;4.87;75.49;98777.19;5031637;28;8965;-77
2021/12/27 00:46:01;;;;;;;;;32.00;24.20;;;;;4.92;75.67;98785.00;5048852;28;8867;-78
2021/12/27 00:48:30;;;;;;;;;30.00;27.60;;;;;5.00;75.27;98779.03;5032534;28;8859;-78
2021/12/27 00:50:59;;;;;;;;;26.80;21.00;;;;;4.88;75.06;98778.94;5046807;28;8969;-78
2021/12/27 00:53:27;;;;;;;;;23.00;19.00;;;;;4.95;75.61;98779.84;5027146;28;8872;-79
2021/12/27 00:55:56;;;;;;;;;19.60;18.20;;;;;4.80;75.42;98772.81;5027193;28;8872;-77
2021/12/27 00:58:26;;;;;;;;;23.40;22.60;;;;;4.80;75.57;98759.91;5047084;28;8907;-78
2021/12/27 01:00:55;;;;;;;;;18.00;14.20;;;;;4.72;75.26;98751.22;5047035;28;8865;-76
2021/12/27 01:03:24;;;;;;;;;18.40;16.60;;;;;4.60;75.41;98752.81;5030637;28;8884;-78
2021/12/27 01:05:53;;;;;;;;;17.20;16.00;;;;;4.63;75.25;98755.44;5048168;28;8942;-77
2021/12/27 01:08:22;;;;;;;;;15.20;14.60;;;;;4.67;75.33;98774.44;5046466;28;8911;-78
2021/12/27 01:13:46;;;;;;;;;15.20;14.80;;;;;4.94;75.88;98775.56;5032134;28;8873;-77
2021/12/27 01:16:16;;;;;;;;;12.40;10.40;;;;;4.95;74.25;98778.13;4981952;28;8899;-78
2021/12/27 01:18:50;;;;;;;;;24.60;22.40;;;;;4.99;74.38;98748.91;5046588;28;8837;-77
2021/12/27 01:21:23;;;;;;;;;21.40;18.40;;;;;4.84;73.81;98752.22;5029634;28;8984;-78
2021/12/27 01:23:54;;;;;;;;;19.00;15.20;;;;;4.89;74.94;98762.56;5043083;28;8873;-77
2021/12/27 01:26:25;;;;;;;;;19.60;18.80;;;;;4.94;74.53;98748.00;5044541;28;8864;-77
2021/12/27 01:28:58;;;;;;;;;11.00;11.00;;;;;4.88;75.13;98750.53;5046504;28;8901;-78
2021/12/27 01:31:26;;;;;;;;;21.40;16.60;;;;;4.94;75.72;98749.72;5046204;28;8857;-77
2021/12/27 01:33:55;;;;;;;;;23.80;21.20;;;;;4.93;75.54;98750.56;5043650;28;8885;-77
2021/12/27 01:36:24;;;;;;;;;28.80;23.80;;;;;5.08;75.29;98745.53;5025157;28;8879;-77
2021/12/27 01:38:53;;;;;;;;;30.20;26.20;;;;;5.19;75.38;98753.38;5043071;28;8837;-77
2021/12/27 01:41:22;;;;;;;;;22.60;19.20;;;;;5.30;74.83;98743.97;5012586;28;8971;-78
2021/12/27 01:43:52;;;;;;;;;26.00;21.80;;;;;5.39;74.75;98732.84;4998496;28;12303;-79
2021/12/27 01:46:26;;;;;;;;;27.80;27.00;;;;;5.51;75.07;98737.25;5066725;28;8870;-78
2021/12/27 01:48:56;;;;;;;;;28.80;26.40;;;;;5.58;75.08;98741.59;5040563;28;8956;-77
2021/12/27 01:51:27;;;;;;;;;27.20;24.60;;;;;5.64;74.37;98736.47;5050011;28;8888;-79
2021/12/27 01:53:57;;;;;;;;;28.40;25.60;;;;;5.60;73.65;98738.16;5049822;28;8860;-78
2021/12/27 01:56:26;;;;;;;;;35.20;29.00;;;;;5.60;73.50;98730.41;5082175;28;9027;-78
2021/12/27 01:58:56;;;;;;;;;31.60;23.40;;;;;5.57;73.03;98732.09;4999867;28;9009;-77
2021/12/27 02:01:27;;;;;;;;;33.80;30.00;;;;;5.68;74.04;98739.94;5071315;28;8860;-78
2021/12/27 02:03:57;;;;;;;;;26.40;24.20;;;;;5.72;73.98;98732.19;5053050;28;8966;-78
2021/12/27 02:06:26;;;;;;;;;35.80;27.80;;;;;5.76;73.44;98733.94;5061560;28;8887;-79
2021/12/27 02:08:55;;;;;;;;;33.60;31.80;;;;;5.84;73.73;98737.44;5026427;28;8858;-78
2021/12/27 02:11:24;;;;;;;;;33.40;30.00;;;;;5.90;73.99;98733.13;5056917;28;8877;-77
2021/12/27 02:13:53;;;;;;;;;37.80;32.40;;;;;5.88;72.93;98721.91;5052990;28;9590;-77
2021/12/27 02:16:23;;;;;;;;;31.20;29.80;;;;;5.86;72.24;98715.03;5064723;28;8880;-77
2021/12/27 02:18:54;;;;;;;;;39.80;32.60;;;;;5.87;72.53;98713.28;5053096;28;8902;-78
2021/12/27 02:21:26;;;;;;;;;30.60;22.80;;;;;5.89;73.02;98711.59;5068383;28;8891;-80
2021/12/27 02:23:57;;;;;;;;;37.75;34.25;;;;;5.97;72.89;98703.88;5002863;28;8848;-79
2021/12/27 02:26:25;;;;;;;;;32.20;29.80;;;;;5.98;73.02;98705.63;5068936;28;8915;-78
2021/12/27 02:28:54;;;;;;;;;33.00;27.80;;;;;6.02;73.10;98704.78;5073055;28;8869;-78
2021/12/27 02:31:23;;;;;;;;;33.50;29.00;;;;;5.93;72.73;98702.09;5071301;28;8889;-77
2021/12/27 02:33:52;;;;;;;;;34.40;30.20;;;;;5.95;73.13;98698.69;5062134;28;8976;-79
2021/12/27 02:36:24;;;;;;;;;27.60;24.20;;;;;6.01;73.49;98690.97;5067294;28;8883;-77
2021/12/27 02:38:54;;;;;;;;;35.80;31.40;;;;;5.99;72.73;98695.28;5007154;28;8933;-77
2021/12/27 02:41:23;;;;;;;;;33.60;28.40;;;;;6.02;73.02;98707.38;5025881;28;8914;-79
2021/12/27 02:43:52;;;;;;;;;32.00;27.40;;;;;6.05;73.31;98704.81;5073478;28;8877;-77
2021/12/27 02:46:21;;;;;;;;;29.60;26.80;;;;;6.09;72.89;98710.81;5057476;28;8846;-78
2021/12/27 02:48:50;;;;;;;;;28.80;25.60;;;;;6.03;72.26;98714.25;5054780;28;8859;-80
2021/12/27 02:51:20;;;;;;;;;32.20;30.80;;;;;6.04;72.55;98711.69;5087352;28;9011;-78
2021/12/27 02:53:50;;;;;;;;;25.00;22.60;;;;;6.05;72.46;98704.81;5008586;28;8867;-78
2021/12/27 02:56:21;;;;;;;;;22.60;19.60;;;;;6.09;72.85;98703.06;5046718;28;9647;-79
2021/12/27 02:58:51;;;;;;;;;35.00;27.60;;;;;6.12;73.16;98708.25;5060163;28;9015;-79
2021/12/27 03:01:23;;;;;;;;;21.40;18.00;;;;;6.19;73.36;98713.47;5070591;28;8983;-77
2021/12/27 03:03:53;;;;;;;;;29.00;26.60;;;;;6.21;73.18;98708.28;5061270;28;8862;-79
2021/12/27 03:06:22;;;;;;;;;23.60;23.00;;;;;6.24;73.35;98693.63;5072718;28;8866;-79
2021/12/27 03:08:51;;;;;;;;;34.20;26.00;;;;;6.30;73.17;98694.53;5052867;28;8866;-78
2021/12/27 03:11:22;;;;;;;;;30.40;24.80;;;;;6.32;72.63;98691.06;5067468;28;8857;-78
2021/12/27 03:13:52;;;;;;;;;30.00;27.60;;;;;6.34;72.69;98693.66;5054783;28;8834;-78
2021/12/27 03:16:24;;;;;;;;;19.60;16.80;;;;;6.35;72.60;98693.69;5070098;28;8856;-79
2021/12/27 03:18:55;;;;;;;;;28.40;23.80;;;;;6.36;72.47;98686.78;5072132;28;8854;-77
2021/12/27 03:21:23;;;;;;;;;21.80;21.40;;;;;6.35;72.38;98683.31;5072406;28;8861;-76
2021/12/27 03:23:52;;;;;;;;;26.20;24.40;;;;;6.31;72.23;98683.28;5035481;28;8903;-78
2021/12/27 03:26:23;;;;;;;;;22.20;19.60;;;;;6.35;72.38;98685.91;5052917;28;8946;-80
2021/12/27 03:28:52;;;;;;;;;29.40;24.00;;;;;6.34;72.66;98673.81;5072735;28;8861;-78
2021/12/27 03:31:21;;;;;;;;;29.40;26.20;;;;;6.36;72.54;98677.28;5052846;28;8862;-77
2021/12/27 03:33:50;;;;;;;;;22.00;20.80;;;;;6.20;71.29;98673.78;5060716;28;9691;-77
2021/12/27 03:36:23;;;;;;;;;24.60;24.20;;;;;6.24;72.24;98666.91;5038020;28;8853;-80
2021/12/27 03:38:53;;;;;;;;;26.60;23.60;;;;;6.22;72.48;98660.84;5052105;28;8856;-77
2021/12/27 03:41:25;;;;;;;;;26.40;23.00;;;;;6.22;72.07;98663.44;5047729;28;8864;-76
2021/12/27 03:43:54;;;;;;;;;16.80;15.80;;;;;6.22;72.30;98656.53;5071848;28;8849;-78
2021/12/27 03:46:23;;;;;;;;;20.60;18.20;;;;;6.18;72.72;98657.38;5062333;28;8905;-78
2021/12/27 03:48:52;;;;;;;;;19.20;18.60;;;;;6.12;72.64;98657.34;5054224;28;8984;-78
2021/12/27 03:51:21;;;;;;;;;19.60;16.60;;;;;6.15;73.20;98657.38;5082451;28;8900;-78
2021/12/27 03:53:50;;;;;;;;;20.60;18.40;;;;;6.17;72.88;98671.19;5071546;28;8946;-79
2021/12/27 03:56:23;;;;;;;;;21.00;18.40;;;;;6.20;73.25;98668.63;5004436;28;8861;-80
2021/12/27 03:58:59;;;;;;;;;22.20;18.80;;;;;6.22;73.88;98669.47;5067575;28;8871;-77
2021/12/27 04:01:29;;;;;;;;;21.00;17.80;;;;;6.16;72.95;98673.75;5070377;28;8865;-77
2021/12/27 04:04:17;;;;;;;;;23.20;19.80;;;;;6.19;73.28;98661.69;5071651;28;8856;-80
2021/12/27 04:07:07;;;;;;;;;16.40;16.00;;;;;6.19;72.95;98658.25;5043953;28;8858;-78
2021/12/27 04:09:54;;;;;;;;;19.40;17.40;;;;;6.20;72.75;98650.50;5089398;28;8865;-78
2021/12/27 04:12:43;;;;;;;;;20.80;16.60;;;;;6.19;72.88;98647.88;5073955;28;8888;-78
2021/12/27 04:15:14;;;;;;;;;20.00;18.00;;;;;6.13;72.38;98653.91;5086526;28;8842;-80
2021/12/27 04:17:43;;;;;;;;;15.40;15.40;;;;;6.13;72.88;98655.66;5044092;28;8903;-77
2021/12/27 04:20:12;;;;;;;;;22.20;21.20;;;;;6.14;73.03;98654.78;5053195;28;8958;-78
2021/12/27 04:22:41;;;;;;;;;86.50;69.75;;;;;6.16;73.87;98653.03;5071145;28;8865;-79
2021/12/27 04:25:16;;;;;;;;;113.25;102.75;;;;;6.19;74.11;98658.25;5066959;28;8946;-78
2021/12/27 04:27:47;;;;;;;;;49.50;41.00;;;;;6.19;73.84;98663.41;5045043;28;10839;-76
2021/12/27 04:30:18;;;;;;;;;70.75;55.75;;;;;6.24;73.75;98665.16;5049933;28;8895;-77
2021/12/27 04:32:49;;;;;;;;;53.75;43.75;;;;;6.11;72.51;98665.13;5084755;28;8902;-77
2021/12/27 04:35:18;;;;;;;;;41.00;36.00;;;;;6.14;73.45;98673.75;5022367;28;13287;-77
2021/12/27 04:37:48;;;;;;;;;27.00;23.20;;;;;6.15;73.40;98669.47;5079390;28;8858;-76
2021/12/27 04:40:20;;;;;;;;;24.20;21.00;;;;;6.14;73.66;98673.75;5050115;28;8881;-79
2021/12/27 04:42:53;;;;;;;;;24.00;23.20;;;;;6.18;73.93;98669.44;5083935;28;8860;-79
2021/12/27 04:45:24;;;;;;;;;24.20;21.40;;;;;6.18;73.22;98665.16;5068645;28;8861;-77
2021/12/27 04:47:52;;;;;;;;;35.00;27.20;;;;;6.08;72.41;98671.16;5067634;28;9022;-78
2021/12/27 04:50:23;;;;;;;;;23.40;19.80;;;;;6.05;73.13;98664.25;5049852;28;8849;-75
2021/12/27 04:52:53;;;;;;;;;21.40;15.80;;;;;6.05;73.23;98665.97;5025146;28;8952;-76
2021/12/27 04:55:23;;;;;;;;;18.00;16.20;;;;;6.09;73.66;98659.94;5006302;28;8958;-78
2021/12/27 04:57:52;;;;;;;;;82.50;66.00;;;;;6.10;73.82;98663.38;4993181;28;8856;-78
2021/12/27 05:00:24;;;;;;;;;79.00;63.25;;;;;6.11;73.65;98666.00;5009273;28;8844;-78
2021/12/27 05:02:52;;;;;;;;;51.75;44.00;;;;;6.11;72.78;98662.56;4991785;28;8910;-78
2021/12/27 05:05:21;;;;;;;;;33.20;28.20;;;;;6.08;72.99;98662.53;4935956;28;12169;-76
2021/12/27 05:07:50;;;;;;;;;30.50;25.75;;;;;6.08;73.50;98662.53;4991270;28;8863;-78
2021/12/27 05:10:19;;;;;;;;;122.75;108.50;;;;;6.05;73.56;98663.38;4975124;28;9656;-78
2021/12/27 05:12:48;;;;;;;;;67.00;53.25;;;;;6.08;73.48;98657.34;5008489;28;10724;-78
2021/12/27 05:15:38;;;;;;;;;36.00;26.25;;;;;6.12;73.25;98662.53;5024502;28;8883;-79
2021/12/27 05:18:07;;;;;;;;;42.25;39.75;;;;;6.02;72.73;98665.97;4988798;28;8878;-77
2021/12/27 05:20:36;;;;;;;;;83.50;65.50;;;;;6.01;73.57;98662.50;4990898;28;9067;-77
2021/12/27 05:23:05;;;;;;;;;99.75;80.25;;;;;6.01;73.69;98666.81;5029427;28;8905;-79
2021/12/27 05:25:34;;;;;;;;;76.50;60.00;;;;;6.01;73.15;98669.38;5084671;28;9991;-80
2021/12/27 05:28:03;;;;;;;;;24.75;23.50;;;;;5.94;72.16;98672.81;5051525;28;8860;-79
2021/12/27 05:30:31;;;;;;;;;40.75;30.00;;;;;5.96;73.72;98673.72;5084081;28;8838;-78
2021/12/27 05:33:02;;;;;;;;;31.40;29.60;;;;;5.99;73.64;98676.28;5016298;28;8857;-80
2021/12/27 05:35:31;;;;;;;;;28.80;26.00;;;;;5.41;73.30;98680.28;4968794;28;9594;-79
2021/12/27 05:38:00;;;;;;;;;27.20;25.40;;;;;5.41;75.14;98682.03;4985431;28;8872;-78
2021/12/27 05:40:29;;;;;;;;;157.75;142.75;;;;;5.55;75.74;98687.25;4969635;28;8852;-79
2021/12/27 05:42:58;;;;;;;;;96.75;73.00;;;;;5.58;75.24;98689.88;4973133;28;11685;-81
2021/12/27 05:45:27;;;;;;;;;27.40;23.80;;;;;5.38;73.82;98690.59;4956803;28;9546;-78
2021/12/27 05:47:56;;;;;;;;;25.80;23.20;;;;;4.40;77.86;98694.94;5006193;28;9464;-78
2021/12/27 05:50:27;;;;;;;;;17.80;17.80;;;;;3.82;80.09;98702.88;5005925;28;8891;-76
2021/12/27 05:52:56;;;;;;;;;21.20;19.00;;;;;3.39;83.31;98705.75;4991792;28;8918;-78
2021/12/27 05:55:25;;;;;;;;;18.40;18.40;;;;;3.24;84.59;98716.69;4973188;28;8860;-79
2021/12/27 05:57:54;;;;;;;;;22.00;21.80;;;;;3.20;85.22;98708.91;4989485;28;8954;-80
2021/12/27 06:00:23;;;;;;;;;15.00;14.20;;;;;3.22;84.38;98709.78;4992758;28;8958;-79
2021/12/27 06:02:54;;;;;;;;;14.60;13.20;;;;;3.34;83.85;98707.38;5027776;28;8895;-78
2021/12/27 06:05:27;;;;;;;;;22.20;17.80;;;;;3.69;83.33;98702.72;4995935;28;8844;-78
2021/12/27 06:07:55;;;;;;;;;15.80;15.20;;;;;4.01;83.24;98704.00;4996101;28;8979;-77
2021/12/27 06:10:25;;;;;;;;;21.80;19.00;;;;;3.70;82.05;98714.78;5044191;28;8868;-80
2021/12/27 06:12:53;;;;;;;;;18.20;15.60;;;;;2.95;85.10;98711.09;5060870;28;8846;-79
2021/12/27 06:15:22;;;;;;;;;19.00;16.00;;;;;2.65;87.25;98724.31;5073170;28;9012;-78
2021/12/27 06:17:52;;;;;;;;;17.40;15.40;;;;;2.45;87.87;98723.94;5049988;28;9622;-78
2021/12/27 06:20:21;;;;;;;;;21.00;17.00;;;;;2.08;90.52;98731.81;5049971;28;9039;-79
2021/12/27 06:22:56;;;;;;;;;24.60;22.40;;;;;1.87;92.81;98734.81;5019044;28;8868;-78
2021/12/27 06:25:25;;;;;;;;;23.60;19.20;;;;;1.81;93.39;98729.53;5042513;28;8904;-78
2021/12/27 06:27:55;;;;;;;;;22.00;18.20;;;;;1.73;94.19;98741.38;5051119;28;9773;-79
2021/12/27 06:30:23;;;;;;;;;23.60;23.00;;;;;1.56;94.92;98744.41;5027890;28;8860;-78
2021/12/27 06:32:52;;;;;;;;;16.40;15.60;;;;;1.64;95.61;98747.16;5011889;28;8910;-77
2021/12/27 06:35:21;;;;;;;;;22.80;21.20;;;;;1.66;96.05;98752.34;5011746;28;8883;-77
2021/12/27 06:37:52;;;;;;;;;18.40;16.00;;;;;1.63;95.16;98762.56;4995557;28;8966;-78
2021/12/27 06:40:20;;;;;;;;;19.60;12.80;;;;;1.48;95.82;98766.50;4940821;28;8845;-77
2021/12/27 06:42:49;;;;;;;;;15.80;15.80;;;;;1.39;97.50;98763.72;4972726;28;8852;-78
2021/12/27 06:45:18;;;;;;;;;8.20;8.20;;;;;1.32;98.19;98769.53;4940388;28;8981;-76
2021/12/27 06:47:47;;;;;;;;;22.50;20.75;;;;;1.32;98.31;98762.72;4972099;28;8966;-76
2021/12/27 06:50:17;;;;;;;;;27.20;20.20;;;;;1.40;98.85;98769.72;4988584;28;8872;-78
2021/12/27 06:52:46;;;;;;;;;12.40;12.40;;;;;1.15;98.33;98767.47;4954893;28;8852;-77
2021/12/27 06:55:16;;;;;;;;;14.20;12.00;;;;;1.16;99.14;98778.59;4971371;28;8915;-78
2021/12/27 06:57:46;;;;;;;;;12.60;11.20;;;;;1.08;99.31;98774.97;4988268;28;8860;-77
2021/12/27 07:00:15;;;;;;;;;13.20;13.20;;;;;1.02;100.00;98788.53;4971532;28;8872;-79
2021/12/27 07:02:45;;;;;;;;;13.20;13.20;;;;;0.97;100.00;98785.84;5032768;28;8878;-79
2021/12/27 07:05:14;;;;;;;;;15.20;15.00;;;;;1.01;100.00;98785.91;5030741;28;8908;-78
2021/12/27 07:07:43;;;;;;;;;18.60;16.80;;;;;1.11;100.00;98783.59;5014864;28;8877;-77
2021/12/27 07:10:17;;;;;;;;;15.20;15.20;;;;;1.24;99.71;98789.06;5014579;28;8858;-78
2021/12/27 07:12:45;;;;;;;;;19.00;16.40;;;;;1.11;99.53;98801.56;5051160;28;8875;-76
2021/12/27 07:15:15;;;;;;;;;9.60;9.60;;;;;1.11;100.00;98798.16;5082641;28;8945;-77
2021/12/27 07:17:44;;;;;;;;;9.80;9.80;;;;;1.04;100.00;98807.41;5072786;28;8869;-78
2021/12/27 07:20:13;;;;;;;;;19.50;16.00;;;;;1.04;100.00;98798.81;5072545;28;8858;-78
2021/12/27 07:22:43;;;;;;;;;20.80;17.60;;;;;1.08;100.00;98806.66;5051991;28;8890;-76
2021/12/27 07:25:11;;;;;;;;;16.60;14.00;;;;;1.03;100.00;98813.34;5064436;28;8846;-77
2021/12/27 07:27:42;;;;;;;;;20.20;15.80;;;;;1.25;100.00;98819.91;5052588;28;9626;-77
2021/12/27 07:30:13;;;;;;;;;15.00;13.40;;;;;1.36;98.90;98810.78;5014852;28;9682;-78
2021/12/27 07:32:42;;;;;;;;;18.80;18.00;;;;;1.19;98.34;98816.31;5058271;28;9083;-76
2021/12/27 07:35:11;;;;;;;;;23.50;20.75;;;;;1.10;99.20;98816.97;5055316;28;8874;-78
2021/12/27 07:37:41;;;;;;;;;20.60;18.20;;;;;1.15;99.56;98807.66;5069014;28;8856;-77
2021/12/27 07:40:12;;;;;;;;;12.00;10.00;;;;;1.14;98.94;98816.19;5055035;28;9598;-77
2021/12/27 07:42:42;;;;;;;;;19.80;16.80;;;;;1.09;99.56;98825.47;5063577;28;8856;-79
2021/12/27 07:45:11;;;;;;;;;49.50;43.50;;;;;1.06;100.00;98820.25;5063482;28;8879;-78
2021/12/27 07:47:40;;;;;;;;;12.40;12.40;;;;;1.00;100.00;98818.41;5047314;28;8842;-77
2021/12/27 07:50:10;;;;;;;;;28.50;26.50;;;;;1.08;100.00;98819.50;5058111;28;8929;-76
2021/12/27 07:52:39;;;;;;;;;27.75;20.00;;;;;1.14;100.00;98813.63;5059405;28;8881;-70
2021/12/27 07:55:08;;;;;;;;;15.60;14.60;;;;;1.04;100.00;98825.38;5057139;28;8859;-74
2021/12/27 07:57:38;;;;;;;;;26.50;22.25;;;;;1.10;100.00;98825.53;5064150;28;8964;-77
2021/12/27 08:00:10;;;;;;;;;20.00;19.80;;;;;1.02;100.00;98824.47;5049442;28;8882;-75
2021/12/27 08:02:39;;;;;;;;;27.50;24.00;;;;;1.05;100.00;98823.66;5063162;28;8962;-78
2021/12/27 08:05:09;;;;;;;;;20.40;16.80;;;;;1.01;100.00;98830.41;5064880;28;8882;-79
2021/12/27 08:07:37;;;;;;;;;25.20;21.40;;;;;0.98;100.00;98835.47;5045936;28;8959;-77
2021/12/27 08:10:08;;;;;;;;;22.80;19.60;;;;;0.92;100.00;98833.59;5059865;28;9080;-78
2021/12/27 08:12:37;;;;;;;;;16.40;15.60;;;;;0.88;100.00;98836.06;4986162;28;8854;-78
2021/12/27 08:15:09;;;;;;;;;16.60;15.60;;;;;0.67;100.00;98849.19;5044196;28;8864;-77
2021/12/27 08:17:39;;;;;;;;;18.60;18.00;;;;;0.54;100.00;98853.97;5032434;28;8872;-77
2021/12/27 08:20:09;;;;;;;;;22.20;21.60;;;;;0.56;100.00;98848.88;5045933;28;8850;-75
2021/12/27 08:22:37;;;;;;;;;20.50;19.50;;;;;0.60;100.00;98855.84;5027651;28;9575;-75
2021/12/27 08:25:07;;;;;;;;;30.25;26.50;;;;;0.75;100.00;98851.13;5032947;28;8895;-75
2021/12/27 08:27:38;;;;;;;;;19.60;18.00;;;;;0.78;100.00;98848.66;5048510;28;8864;-76
2021/12/27 08:30:10;;;;;;;;;15.60;13.20;;;;;0.72;100.00;98861.31;5032453;28;8946;-77
2021/12/27 08:32:42;;;;;;;;;17.40;15.00;;;;;0.64;100.00;98865.34;5028997;28;8868;-77
2021/12/27 08:35:11;;;;;;;;;16.00;13.20;;;;;0.55;100.00;98857.41;5045821;28;8988;-77
2021/12/27 08:37:44;;;;;;;;;26.00;25.00;;;;;0.55;100.00;98867.69;5020723;28;8852;-75
2021/12/27 08:40:14;;;;;;;;;24.00;21.50;;;;;0.76;100.00;98872.53;5058906;28;8972;-76
2021/12/27 08:42:43;;;;;;;;;14.00;13.00;;;;;0.64;100.00;98865.34;5067338;28;8859;-78
2021/12/27 08:45:14;;;;;;;;;20.50;20.50;;;;;0.65;100.00;98864.53;5063871;28;8848;-78
2021/12/27 08:47:42;;;;;;;;;15.80;15.40;;;;;0.67;100.00;98859.44;5044480;28;9566;-76
2021/12/27 08:50:13;;;;;;;;;16.50;13.00;;;;;0.68;100.00;98862.06;5044305;28;8868;-78
2021/12/27 08:52:42;;;;;;;;;21.50;19.50;;;;;0.77;100.00;98866.56;5069928;28;8864;-75
2021/12/27 08:55:11;;;;;;;;;18.50;17.00;;;;;0.82;100.00;98870.13;5028600;28;8858;-77
2021/12/27 08:57:42;;;;;;;;;19.60;17.40;;;;;0.81;100.00;98876.06;5025201;28;8883;-76
2021/12/27 09:00:15;;;;;;;;;11.80;11.60;;;;;0.84;100.00;98875.31;5012073;28;8901;-77
2021/12/27 09:02:44;;;;;;;;;16.00;15.40;;;;;0.83;100.00;98873.56;5028198;28;8862;-77
2021/12/27 09:05:13;;;;;;;;;14.60;13.80;;;;;0.89;100.00;98873.72;5028221;28;8979;-77
2021/12/27 09:07:42;;;;;;;;;17.20;13.00;;;;;0.83;100.00;98869.28;5011726;28;8862;-77
2021/12/27 09:10:11;;;;;;;;;21.50;18.50;;;;;0.85;100.00;98859.06;5008575;28;8916;-77
2021/12/27 09:12:40;;;;;;;;;18.75;17.50;;;;;0.90;100.00;98866.06;4966228;28;8902;-77
2021/12/27 09:15:10;;;;;;;;;15.75;14.75;;;;;0.95;100.00;98855.94;4991511;28;8999;-76
2021/12/27 09:17:41;;;;;;;;;16.75;14.50;;;;;1.13;100.00;98869.22;4991752;28;8903;-79
2021/12/27 09:20:10;;;;;;;;;19.00;18.00;;;;;1.56;100.00;98856.63;4991795;28;8876;-77
2021/12/27 09:22:39;;;;;;;;;21.75;19.25;;;;;1.82;99.55;98864.94;4969133;28;8866;-79
2021/12/27 09:25:08;;;;;;;;;17.75;16.00;;;;;2.17;97.28;98854.56;4985238;28;8874;-76
2021/12/27 09:27:37;;;;;;;;;14.20;11.60;;;;;2.25;93.76;98862.44;5007533;28;9003;-77
2021/12/27 09:30:07;;;;;;;;;19.00;19.00;;;;;2.34;93.58;98860.06;4978364;28;8893;-75
2021/12/27 09:32:36;;;;;;;;;23.75;18.75;;;;;2.23;92.55;98854.72;5007574;28;8887;-77
2021/12/27 09:35:07;;;;;;;;;13.00;12.80;;;;;2.47;92.98;98862.06;4990203;28;8868;-75
2021/12/27 09:37:36;;;;;;;;;20.40;18.40;;;;;2.59;91.81;98863.16;5003724;28;8872;-77
2021/12/27 09:40:06;;;;;;;;;24.00;16.60;;;;;2.80;90.79;98870.44;4987673;28;8852;-79
2021/12/27 09:42:36;;;;;;;;;16.40;13.40;;;;;2.60;89.23;98862.34;5006432;28;8892;-76
2021/12/27 09:45:06;;;;;;;;;19.60;15.20;;;;;2.28;91.40;98862.53;5021690;28;8980;-76
2021/12/27 09:47:37;;;;;;;;;19.00;16.20;;;;;2.22;91.81;98860.69;4988267;28;8846;-76
2021/12/27 09:50:23;;;;;;;;;24.75;22.50;;;;;2.19;94.16;98863.19;4987909;28;8926;-76
2021/12/27 09:52:54;;;;;;;;;38.00;32.75;;;;;2.19;93.78;98862.31;4990344;28;8958;-77
2021/12/27 09:55:23;;;;;;;;;19.60;16.20;;;;;2.29;91.92;98847.13;5020564;28;8872;-79
2021/12/27 09:57:52;;;;;;;;;22.00;20.40;;;;;1.74;94.15;98853.63;4987749;28;8961;-77
2021/12/27 10:00:24;;;;;;;;;22.40;22.20;;;;;1.75;95.95;98858.78;5005167;28;8862;-76
2021/12/27 10:02:55;;;;;;;;;25.60;24.20;;;;;1.85;96.32;98869.28;5057403;28;8988;-77
2021/12/27 10:05:31;;;;;;;;;25.00;21.75;;;;;1.83;96.00;98863.22;5029949;28;8864;-75
2021/12/27 10:08:01;;;;;;;;;18.60;17.60;;;;;1.92;96.43;98863.44;5046043;28;8875;-78
2021/12/27 10:10:33;;;;;;;;;17.20;16.60;;;;;2.06;95.08;98859.50;5029654;28;8883;-75
2021/12/27 10:13:06;;;;;;;;;31.75;25.50;;;;;1.73;95.81;98864.72;5046407;28;8864;-76
2021/12/27 10:15:38;;;;;;;;;30.00;26.00;;;;;2.09;95.96;98858.69;5030601;28;8848;-77
2021/12/27 10:18:10;;;;;;;;;28.40;25.00;;;;;2.37;95.59;98856.72;5048713;28;8864;-77
2021/12/27 10:20:43;;;;;;;;;24.60;21.20;;;;;2.71;93.86;98853.97;5041959;28;8863;-78
2021/12/27 10:23:13;;;;;;;;;28.80;26.00;;;;;2.60;91.69;98858.03;5035082;28;8879;-77
2021/12/27 10:25:42;;;;;;;;;23.60;21.80;;;;;2.84;91.88;98855.09;5017596;28;8878;-75
2021/12/27 10:28:11;;;;;;;;;39.25;33.00;;;;;3.01;90.25;98865.72;5067510;28;8838;-77
2021/12/27 10:30:45;;;;;;;;;29.25;25.75;;;;;2.41;91.29;98856.81;5013268;28;8983;-77
2021/12/27 10:33:21;;;;;;;;;32.80;28.80;;;;;2.66;91.76;98855.59;5035376;28;8866;-77
2021/12/27 10:35:55;;;;;;;;;26.60;24.80;;;;;2.83;90.36;98845.63;5054594;28;8840;-75
2021/12/27 10:38:26;;;;;;;;;24.00;24.00;;;;;3.10;90.33;98839.22;5063938;28;8895;-77
2021/12/27 10:40:59;;;;;;;;;24.40;23.20;;;;;3.23;88.53;98835.16;5071910;28;8849;-77
2021/12/27 10:43:38;;;;;;;;;16.20;16.00;;;;;3.46;87.37;98828.72;5051625;28;8876;-75
2021/12/27 10:46:09;;;;;;;;;16.80;16.00;;;;;3.56;85.72;98828.88;5052257;28;8840;-76
2021/12/27 10:48:40;;;;;;;;;17.20;17.20;;;;;3.70;84.48;98828.25;5071294;28;8858;-75
2021/12/27 10:51:11;;;;;;;;;22.20;19.20;;;;;3.66;82.79;98830.72;5054887;28;8866;-77
2021/12/27 10:53:48;;;;;;;;;27.40;21.60;;;;;3.69;82.73;98823.91;5054617;28;8857;-76
2021/12/27 10:56:18;;;;;;;;;10.60;8.40;;;;;3.58;83.63;98814.28;5062013;28;8868;-77
2021/12/27 10:58:49;;;;;;;;;23.00;18.20;;;;;3.58;81.97;98822.88;5052589;28;8848;-76
2021/12/27 11:01:21;;;;;;;;;20.60;20.00;;;;;2.71;87.01;98825.66;5074751;28;8902;-79
2021/12/27 11:03:53;;;;;;;;;27.00;24.80;;;;;2.52;87.77;98827.00;5034776;28;8880;-77
2021/12/27 11:06:25;;;;;;;;;23.80;23.20;;;;;2.15;89.10;98827.94;5054267;28;9111;-76
2021/12/27 11:08:54;;;;;;;;;26.60;26.20;;;;;1.93;91.85;98819.78;5071817;28;8854;-76
2021/12/27 11:11:26;;;;;;;;;22.20;19.40;;;;;2.26;91.72;98828.19;5004146;28;8965;-77
2021/12/27 11:13:56;;;;;;;;;24.20;20.80;;;;;2.56;90.33;98824.50;5060661;28;8853;-77
2021/12/27 11:16:28;;;;;;;;;19.00;18.80;;;;;2.89;89.01;98834.56;5056446;28;8890;-79
2021/12/27 11:18:58;;;;;;;;;18.80;16.80;;;;;3.01;87.74;98833.94;4982608;28;9080;-77
2021/12/27 11:21:33;;;;;;;;;16.60;11.40;;;;;3.29;86.18;98843.03;5071510;28;8903;-77
2021/12/27 11:24:04;;;;;;;;;17.60;15.60;;;;;3.59;86.00;98836.63;5050869;28;8875;-77
2021/12/27 11:26:35;;;;;;;;;19.00;16.20;;;;;3.60;82.65;98848.69;5068690;28;8887;-76
2021/12/27 11:29:12;;;;;;;;;14.60;13.60;;;;;3.78;82.97;98851.56;5058177;28;8842;-76
2021/12/27 11:31:42;;;;;;;;;13.40;13.40;;;;;3.99;83.59;98839.78;5050405;28;8848;-76
2021/12/27 11:34:13;;;;;;;;;18.20;14.00;;;;;4.21;83.11;98843.56;5063096;28;8958;-76
2021/12/27 11:36:46;;;;;;;;;17.80;15.20;;;;;3.53;80.84;98839.13;4997601;28;8893;-78
2021/12/27 11:39:21;;;;;;;;;14.40;12.60;;;;;3.58;81.43;98843.50;4981265;28;8923;-77
2021/12/27 11:42:05;;;;;;;;;18.40;15.20;;;;;3.76;82.69;98845.47;4977312;28;8861;-75
2021/12/27 11:44:37;;;;;;;;;23.00;17.20;;;;;3.73;81.26;98845.44;4990018;28;8913;-75
2021/12/27 11:47:07;;;;;;;;;20.60;17.20;;;;;3.08;82.63;98852.13;5004413;28;8929;-78
2021/12/27 11:49:45;;;;;;;;;15.20;14.20;;;;;3.05;84.20;98846.91;5020652;28;8895;-76